Terminal Aerodrome Forecast
Issued by NWS Cleveland, OH

Home | Current Version | Previous Version | Graphics & Text | Print | Product List | Glossary On
Versions: 1 2 3 4 5 6 7 8 9 10 11 12 13 14 15 16 17 18
830
FTUS41 KCLE 241937 AAA
TAFERI
TAF AMD
KERI 241937Z 2420/2518 16008KT P6SM BKN040 OVC120
      TEMPO 2420/2424 5SM -SHRA BKN025
     FM250000 19010KT P6SM SCT040 BKN100
     FM251200 20010KT P6SM VCTS BKN035CB OVC120=

USA.gov is the U.S. government's official web portal to all federal, state and local government web resources and services.